NCAR-RAP Real-Time Weather Data

Output produced by METARs form (23 February 2020  02:37 UTC)
found at http://weather.rap.ucar.edu/surface/
 
KSAC 230153Z 21011KT 10SM CLR 14/09 A2996 RMK AO2 SLP143 T01440089
KSAC 230053Z 21010KT 10SM CLR 18/09 A2994 RMK AO2 SLP138 T01780094
KSAC 222353Z 23012KT 10SM CLR 20/09 A2993 RMK AO2 SLP136 T02000089 10217 20150 55010
KSAC 222253Z VRB05KT 10SM CLR 21/07 A2993 RMK AO2 SLP136 T02110072
KSAC 222153Z 21004KT 10SM CLR 21/05 A2995 RMK AO2 SLP140 T02060050
KSAC 222053Z 26006KT 10SM CLR 20/03 A2996 RMK AO2 SLP146 T02000028 58014
KSAC 221953Z 30008KT 10SM CLR 19/01 A3000 RMK AO2 SLP157 T01890011
KSAC 221853Z VRB04KT 10SM CLR 17/04 A3000 RMK AO2 SLP157 T01670039
KSAC 221753Z 20004KT 10SM CLR 14/03 A3000 RMK AO2 SLP160 T01440028 10144 20056 51015
KSAC 221653Z 19005KT 10SM CLR 13/04 A3000 RMK AO2 SLP158 T01280044
KSAC 221553Z 00000KT 10SM CLR 09/05 A2998 RMK AO2 SLP152 T00940050
KSAC 221453Z 07003KT 10SM CLR 07/03 A2996 RMK AO2 SLP145 T00720033 53006
KSAC 221353Z AUTO 00000KT 10SM CLR 06/02 A2995 RMK AO2 SLP140 T00610017
KSAC 221253Z AUTO 00000KT 10SM CLR 08/02 A2994 RMK AO2 SLP140 T00780022
KSAC 221153Z AUTO 23005KT 10SM CLR 07/03 A2994 RMK AO2 SLP139 T00720033 10139 20067 53002
KSAC 221053Z AUTO 20003KT 10SM CLR 08/03 A2994 RMK AO2 SLP138 T00830033
KSAC 220953Z AUTO 28004KT 10SM CLR 09/03 A2993 RMK AO2 SLP135 T00940033
KSAC 220853Z AUTO 31005KT 10SM CLR 12/03 A2994 RMK AO2 SLP137 T01170028 56010
KSAC 220753Z AUTO 30003KT 10SM CLR 11/03 A2994 RMK AO2 SLP139 T01110028 402280050
KSAC 220653Z AUTO 33004KT 10SM CLR 12/03 A2995 RMK AO2 SLP142 T01170028
KSAC 220553Z AUTO 32005KT 10SM CLR 13/02 A2997 RMK AO2 SLP147 T01330022 10222 20117 55001
KSAC 220453Z 30005KT 10SM CLR 13/03 A2996 RMK AO2 SLP146 T01280028
KSAC 220353Z 00000KT 10SM CLR 15/02 A2997 RMK AO2 SLP149 T01500022
KSAC 220253Z 00000KT 10SM CLR 17/02 A2997 RMK AO2 SLP148 T01670017 55001
KSAC 220153Z 35004KT 10SM CLR 19/02 A2996 RMK AO2 SLP145 T01890017
KSAC 220053Z 33009KT 10SM CLR 22/02 A2995 RMK AO2 SLP143 T02170022
KSAC 212353Z 34008KT 10SM CLR 22/02 A2997 RMK AO2 SLP149 T02170022 10228 20150 56021
KSAC 212253Z 35009KT 10SM CLR 23/04 A2999 RMK AO2 SLP154 T02280039
KSAC 212153Z 35008KT 10SM CLR 22/04 A3001 RMK AO2 SLP163 T02220039
KSAC 212053Z 34008KT 10SM CLR 21/03 A3003 RMK AO2 SLP170 T02060033 58023
KSAC 211953Z 34009KT 10SM CLR 18/04 A3008 RMK AO2 SLP184 T01830044
KSAC 211853Z 35008KT 10SM CLR 17/05 A3009 RMK AO2 SLP190 T01720050
KSAC 211753Z 34006KT 10SM CLR 15/04 A3010 RMK AO2 SLP193 T01500039 10150 20050 50002
KSAC 211653Z 33006KT 10SM CLR 12/04 A3011 RMK AO2 SLP197 T01170039
KSAC 211553Z 34005KT 10SM CLR 09/04 A3011 RMK AO2 SLP196 T00890044
KSAC 211453Z 31003KT 10SM CLR 06/02 A3010 RMK AO2 SLP192 T00560022 51006
KSAC 211353Z AUTO 00000KT 10SM CLR 06/02 A3010 RMK AO2 SLP192 T00560022
KSAC 211253Z AUTO 31003KT 10SM CLR 08/02 A3009 RMK AO2 SLP188 T00780022
KSAC 211153Z AUTO 33003KT 10SM CLR 07/02 A3008 RMK AO2 SLP185 T00720022 10111 20061 56007
KSAC 211053Z AUTO 29003KT 10SM CLR 07/02 A3009 RMK AO2 SLP188 T00720022
KSAC 210953Z AUTO 00000KT 10SM CLR 08/03 A3009 RMK AO2 SLP189 T00830028
KSAC 210853Z AUTO 00000KT 10SM CLR 08/03 A3010 RMK AO2 SLP192 T00830028 57005
KSAC 210753Z AUTO 30003KT 10SM CLR 09/03 A3011 RMK AO2 SLP194 T00940028 402000044
KSAC 210653Z AUTO 35004KT 10SM CLR 11/04 A3011 RMK AO2 SLP196 T01060039
KSAC 210553Z AUTO 00000KT 10SM CLR 11/04 A3012 RMK AO2 SLP198 T01060039 10194 20106 51006
KSAC 210453Z 33003KT 10SM CLR 13/03 A3011 RMK AO2 SLP196 T01280033
KSAC 210353Z 33004KT 10SM CLR 14/03 A3011 RMK AO2 SLP194 T01440033
KSAC 210253Z 00000KT 10SM CLR 15/03 A3010 RMK AO2 SLP192 T01500033 53005